San Leanna, Texas
Current Conditions -  °F | °C
As of 3:53 AM on Thursday 18 Dec 2014 (Local Time) from KAUS Reporting Station
Drizzle Drizzle  
Wind Chill: 44°   Ceiling: 200
Heat Index: 48°   Visibility: 0.75mi
Dew Point: 48°   Wind: 8mph
Humidity: 100%   Direction: 20°NNE
Pressure: 30.09"   Gusts: NA
Location:  30.1663°N, 97.8257°W
Report Text: KAUS 180953Z 02007KT 3/4SM R17L/P6000FT -DZ BR OVC002 09/09 A3009 RMK AO2 SLP190 P0000 T00890089
Loading
Personal Weather Stations






























Interactive Weather Map New forecast layout! Learn more

10-Day Weather Forecast

Advertisements
Track Severe Weather on mobile